Sea Success — VRS4325 — position and weather

sailwx.info

Track history (hours):
 
Tides and Currents Weather Stations Pressure Air Temp Water Temp Dewpoint Dewpoint Depression Visibility Wind Speed Wind Dir Waves Ship Positions

Sea Success

Last reported at 2015-May-27 02:34 UTC. Time now 2015-May-27 05:56 UTC.
Position N 22°17' E 114°10'.

Length 27 m.

Type: High speed craft. MMSI: 477995071.

Date/timePositionNaut miles runAvg speedWind from/ knotsBaromVisibWave heightAir tempDewpointWater temp
2015-May-27 02:34N 22°17' E 114°10'8 6.1
2015-May-27 01:19N 22°16' E 114°02'2 2.4
2015-May-27 00:30N 22°17' E 114°04'6 6.0
2015-May-26 23:34N 22°17' E 114°10'3 3.4
2015-May-26 22:32N 22°17' E 114°06'1 0.1
2015-May-26 13:33N 22°17' E 114°05'3 2.0
2015-May-26 12:14N 22°16' E 114°02'710.4
2015-May-26 11:33N 22°17' E 114°10'6 4.8
2015-May-26 10:21N 22°17' E 114°03'6 7.1
2015-May-26 09:33N 22°17' E 114°10'1 0.7
2015-May-26 08:33N 22°18' E 114°09'1 0.3
2015-May-26 05:34N 22°17' E 114°10'8 3.4
2015-May-26 03:21N 22°16' E 114°02'8 9.5
2015-May-26 02:33N 22°17' E 114°10'7 6.0
2015-May-26 01:19N 22°16' E 114°02'2 3.0
2015-May-26 00:32N 22°17' E 114°04'5 5.2
2015-May-25 23:33N 22°17' E 114°10'6 5.8
2015-May-25 22:27N 22°16' E 114°03'5 0.5
2015-May-25 13:33N 22°18' E 114°08'1 1.2
2015-May-25 12:34N 22°17' E 114°07'5 3.9
2015-May-25 11:21N 22°16' E 114°02'7 9.4
2015-May-25 10:33N 22°17' E 114°10'7 7.3
2015-May-25 09:33N 22°16' E 114°02'7 7.1
2015-May-25 08:33N 22°17' E 114°09'0 0.0
2015-May-25 07:33N 22°17' E 114°09'0 0.0
2015-May-25 06:33N 22°17' E 114°09'0 0.0
2015-May-25 05:33N 22°17' E 114°09'7 6.7
2015-May-25 04:32N 22°17' E 114°02'7 6.8
2015-May-25 03:34N 22°17' E 114°09'3 2.8
2015-May-25 02:33N 22°17' E 114°06'3 3.0
2015-May-25 01:33N 22°17' E 114°09'0 0.0
2015-May-25 00:33N 22°17' E 114°09'0 0.2
2015-May-24 23:33N 22°17' E 114°10'0 0.0
2015-May-24 22:33N 22°17' E 114°10'0 0.0
2015-May-24 21:33N 22°17' E 114°10'0 0.0
2015-May-24 20:33N 22°17' E 114°10'0 0.0
2015-May-24 19:33N 22°17' E 114°10'0 0.0
2015-May-24 18:33N 22°17' E 114°10'0 0.0
2015-May-24 17:33N 22°17' E 114°10'0 0.0
2015-May-24 16:33N 22°17' E 114°10'0 0.0
2015-May-24 15:33N 22°17' E 114°10'0 0.0
2015-May-24 14:33N 22°17' E 114°10'1 1.3
2015-May-24 13:34N 22°18' E 114°08'2 2.0
2015-May-24 12:33N 22°17' E 114°06'4 3.4
2015-May-24 11:14N 22°16' E 114°02'811.2
2015-May-24 10:33N 22°17' E 114°10'7 5.8
2015-May-24 09:24N 22°17' E 114°02'7 7.9
2015-May-24 08:33N 22°17' E 114°09'0 0.0
2015-May-24 07:33N 22°17' E 114°09'0 0.0
2015-May-24 06:33N 22°17' E 114°09'0 0.0
2015-May-24 05:33N 22°17' E 114°09'7 7.3
2015-May-24 04:33N 22°16' E 114°02'8 7.6
2015-May-24 03:34N 22°17' E 114°10'3 3.0
2015-May-24 02:33N 22°17' E 114°06'3 3.2
2015-May-24 01:32N 22°20' E 114°09'2 2.4
2015-May-24 00:33N 22°17' E 114°10'0 0.0
2015-May-23 23:33N 22°17' E 114°10'0 0.0
2015-May-23 22:33N 22°17' E 114°10'0 0.0
2015-May-23 21:34N 22°17' E 114°10'0 0.0
2015-May-23 20:33N 22°17' E 114°10'0 0.0
2015-May-23 19:33N 22°17' E 114°10'0 0.0
2015-May-23 18:33N 22°17' E 114°10'0 0.0
2015-May-23 17:34N 22°17' E 114°10'0 0.0
2015-May-23 16:33N 22°17' E 114°10'0 0.0
2015-May-23 15:33N 22°17' E 114°10'0 0.0
2015-May-23 14:33N 22°17' E 114°10'5 4.6
2015-May-23 13:33N 22°17' E 114°05'3 1.9
2015-May-23 12:11N 22°16' E 114°02'711.8
2015-May-23 11:33N 22°17' E 114°10'7 7.0
2015-May-23 10:32N 22°17' E 114°02'1 1.1
2015-May-23 09:32N 22°17' E 114°03'6 6.0
2015-May-23 08:33N 22°17' E 114°10'7 2.9
2015-May-23 06:09N 22°17' E 114°02'711.5
2015-May-23 05:33N 22°17' E 114°10'7 3.3
2015-May-23 03:20N 22°16' E 114°02'7 9.7
2015-May-23 02:33N 22°17' E 114°10'5 4.0
2015-May-23 01:12N 22°17' E 114°04'0 0.6
2015-May-23 00:33N 22°17' E 114°04'5 5.0
2015-May-22 23:33N 22°17' E 114°10'5 4.3
2015-May-22 22:26N 22°17' E 114°04'0 0.0
2015-May-22 13:33N 22°17' E 114°05'3 2.0
2015-May-22 12:14N 22°16' E 114°02'710.7
2015-May-22 11:33N 22°17' E 114°10'7 7.4
2015-May-22 10:33N 22°16' E 114°02'7 7.2
2015-May-22 09:33N 22°17' E 114°09'0 0.5
2015-May-22 08:33N 22°18' E 114°09'7 3.1
2015-May-22 06:17N 22°16' E 114°02'7 9.9
2015-May-22 05:33N 22°17' E 114°10'8 3.4
2015-May-22 03:18N 22°16' E 114°02'810.1
2015-May-22 02:33N 22°17' E 114°10'8 6.4
2015-May-22 01:22N 22°16' E 114°02'3 3.7
2015-May-22 00:33N 22°17' E 114°05'5 4.8
2015-May-21 23:33N 22°17' E 114°10'7 6.6
2015-May-21 22:32N 22°16' E 114°02'2 0.3
2015-May-21 13:32N 22°17' E 114°05'3 2.1
2015-May-21 12:16N 22°17' E 114°02'7 9.9
2015-May-21 11:33N 22°17' E 114°10'7 7.0
2015-May-21 10:33N 22°17' E 114°02'7 6.8
2015-May-21 09:33N 22°18' E 114°09'1 0.5
2015-May-21 08:33N 22°18' E 114°09'7 3.1
2015-May-21 06:18N 22°16' E 114°02'7 9.8
2015-May-21 05:34N 22°17' E 114°10'7 3.3
2015-May-21 03:20N 22°16' E 114°02'7 9.7
2015-May-21 02:33N 22°17' E 114°10'8 6.6
2015-May-21 01:24N 22°16' E 114°02'3 3.1
2015-May-21 00:33N 22°17' E 114°04'5 5.0
2015-May-20 23:33N 22°17' E 114°10'7 6.9
2015-May-20 22:33N 22°17' E 114°02'3 0.3
2015-May-20 13:33N 22°17' E 114°05'3 2.6
2015-May-20 12:15N 22°16' E 114°02'710.7
2015-May-20 11:34N 22°17' E 114°10'4 3.5
2015-May-20 10:20N 22°17' E 114°05'4 5.5
2015-May-20 09:33N 22°17' E 114°10'5 4.8
2015-May-20 08:31N 22°17' E 114°04'5 5.3
2015-May-20 07:33N 22°17' E 114°10'1 1.0
2015-May-20 06:33N 22°18' E 114°09'0 0.0
2015-May-18 09:28N 22°18' E 114°09'0 0.0
2015-May-18 08:34N 22°18' E 114°09'7 2.9
2015-May-18 06:11N 22°17' E 114°02'711.0
2015-May-18 05:33N 22°17' E 114°10'7 3.3
2015-May-18 03:20N 22°16' E 114°02'7 9.3
2015-May-18 02:33N 22°17' E 114°10'6 4.4
2015-May-18 01:16N 22°17' E 114°04'0 0.6
2015-May-18 00:33N 22°17' E 114°04'5 5.2
2015-May-17 23:33N 22°17' E 114°10'4 3.6
2015-May-17 22:27N 22°17' E 114°05'3 0.3
2015-May-17 14:05N 22°17' E 114°02'510.0
2015-May-17 13:33N 22°18' E 114°08'1 0.7
2015-May-17 12:33N 22°17' E 114°07'5 4.2
2015-May-17 11:24N 22°16' E 114°02'7 8.4
2015-May-17 10:33N 22°17' E 114°10'7 6.9
2015-May-17 09:32N 22°17' E 114°02'7 7.0
2015-May-17 08:33N 22°17' E 114°09'0 0.0
2015-May-17 07:33N 22°17' E 114°09'0 0.0
2015-May-17 06:33N 22°17' E 114°09'0 0.0
2015-May-17 05:33N 22°17' E 114°09'7 6.6
2015-May-17 04:31N 22°17' E 114°02'7 6.9
2015-May-17 03:33N 22°17' E 114°09'  
Track history (hours):
 
Tides and Currents Weather Stations Pressure Air Temp Water Temp Dewpoint Dewpoint Depression Visibility Wind Speed Wind Dir Waves Ship Positions

Sea Success

Last reported at 2015-May-27 02:34 UTC. Time now 2015-May-27 05:56 UTC.
Position N 22°17' E 114°10'.

Length 27 m.

Type: High speed craft. MMSI: 477995071.

Date/timePositionNaut miles runAvg speedWind from/ knotsBaromVisibWave heightAir tempDewpointWater temp
2015-May-27 02:34N 22°17' E 114°10'8 6.1
2015-May-27 01:19N 22°16' E 114°02'2 2.4
2015-May-27 00:30N 22°17' E 114°04'6 6.0
2015-May-26 23:34N 22°17' E 114°10'3 3.4
2015-May-26 22:32N 22°17' E 114°06'1 0.1
2015-May-26 13:33N 22°17' E 114°05'3 2.0
2015-May-26 12:14N 22°16' E 114°02'710.4
2015-May-26 11:33N 22°17' E 114°10'6 4.8
2015-May-26 10:21N 22°17' E 114°03'6 7.1
2015-May-26 09:33N 22°17' E 114°10'1 0.7
2015-May-26 08:33N 22°18' E 114°09'1 0.3
2015-May-26 05:34N 22°17' E 114°10'8 3.4
2015-May-26 03:21N 22°16' E 114°02'8 9.5
2015-May-26 02:33N 22°17' E 114°10'7 6.0
2015-May-26 01:19N 22°16' E 114°02'2 3.0
2015-May-26 00:32N 22°17' E 114°04'5 5.2
2015-May-25 23:33N 22°17' E 114°10'6 5.8
2015-May-25 22:27N 22°16' E 114°03'5 0.5
2015-May-25 13:33N 22°18' E 114°08'1 1.2
2015-May-25 12:34N 22°17' E 114°07'5 3.9
2015-May-25 11:21N 22°16' E 114°02'7 9.4
2015-May-25 10:33N 22°17' E 114°10'7 7.3
2015-May-25 09:33N 22°16' E 114°02'7 7.1
2015-May-25 08:33N 22°17' E 114°09'0 0.0
2015-May-25 07:33N 22°17' E 114°09'0 0.0
2015-May-25 06:33N 22°17' E 114°09'0 0.0
2015-May-25 05:33N 22°17' E 114°09'7 6.7
2015-May-25 04:32N 22°17' E 114°02'7 6.8
2015-May-25 03:34N 22°17' E 114°09'3 2.8
2015-May-25 02:33N 22°17' E 114°06'3 3.0
2015-May-25 01:33N 22°17' E 114°09'0 0.0
2015-May-25 00:33N 22°17' E 114°09'0 0.2
2015-May-24 23:33N 22°17' E 114°10'0 0.0
2015-May-24 22:33N 22°17' E 114°10'0 0.0
2015-May-24 21:33N 22°17' E 114°10'0 0.0
2015-May-24 20:33N 22°17' E 114°10'0 0.0
2015-May-24 19:33N 22°17' E 114°10'0 0.0
2015-May-24 18:33N 22°17' E 114°10'0 0.0
2015-May-24 17:33N 22°17' E 114°10'0 0.0
2015-May-24 16:33N 22°17' E 114°10'0 0.0
2015-May-24 15:33N 22°17' E 114°10'0 0.0
2015-May-24 14:33N 22°17' E 114°10'1 1.3
2015-May-24 13:34N 22°18' E 114°08'2 2.0
2015-May-24 12:33N 22°17' E 114°06'4 3.4
2015-May-24 11:14N 22°16' E 114°02'811.2
2015-May-24 10:33N 22°17' E 114°10'7 5.8
2015-May-24 09:24N 22°17' E 114°02'7 7.9
2015-May-24 08:33N 22°17' E 114°09'0 0.0
2015-May-24 07:33N 22°17' E 114°09'0 0.0
2015-May-24 06:33N 22°17' E 114°09'0 0.0
2015-May-24 05:33N 22°17' E 114°09'7 7.3
2015-May-24 04:33N 22°16' E 114°02'8 7.6
2015-May-24 03:34N 22°17' E 114°10'3 3.0
2015-May-24 02:33N 22°17' E 114°06'3 3.2
2015-May-24 01:32N 22°20' E 114°09'2 2.4
2015-May-24 00:33N 22°17' E 114°10'0 0.0
2015-May-23 23:33N 22°17' E 114°10'0 0.0
2015-May-23 22:33N 22°17' E 114°10'0 0.0
2015-May-23 21:34N 22°17' E 114°10'0 0.0
2015-May-23 20:33N 22°17' E 114°10'0 0.0
2015-May-23 19:33N 22°17' E 114°10'0 0.0
2015-May-23 18:33N 22°17' E 114°10'0 0.0
2015-May-23 17:34N 22°17' E 114°10'0 0.0
2015-May-23 16:33N 22°17' E 114°10'0 0.0
2015-May-23 15:33N 22°17' E 114°10'0 0.0
2015-May-23 14:33N 22°17' E 114°10'5 4.6
2015-May-23 13:33N 22°17' E 114°05'3 1.9
2015-May-23 12:11N 22°16' E 114°02'711.8
2015-May-23 11:33N 22°17' E 114°10'7 7.0
2015-May-23 10:32N 22°17' E 114°02'1 1.1
2015-May-23 09:32N 22°17' E 114°03'6 6.0
2015-May-23 08:33N 22°17' E 114°10'7 2.9
2015-May-23 06:09N 22°17' E 114°02'711.5
2015-May-23 05:33N 22°17' E 114°10'7 3.3
2015-May-23 03:20N 22°16' E 114°02'7 9.7
2015-May-23 02:33N 22°17' E 114°10'5 4.0
2015-May-23 01:12N 22°17' E 114°04'0 0.6
2015-May-23 00:33N 22°17' E 114°04'5 5.0
2015-May-22 23:33N 22°17' E 114°10'5 4.3
2015-May-22 22:26N 22°17' E 114°04'0 0.0
2015-May-22 13:33N 22°17' E 114°05'3 2.0
2015-May-22 12:14N 22°16' E 114°02'710.7
2015-May-22 11:33N 22°17' E 114°10'7 7.4
2015-May-22 10:33N 22°16' E 114°02'7 7.2
2015-May-22 09:33N 22°17' E 114°09'0 0.5
2015-May-22 08:33N 22°18' E 114°09'7 3.1
2015-May-22 06:17N 22°16' E 114°02'7 9.9
2015-May-22 05:33N 22°17' E 114°10'8 3.4
2015-May-22 03:18N 22°16' E 114°02'810.1
2015-May-22 02:33N 22°17' E 114°10'8 6.4
2015-May-22 01:22N 22°16' E 114°02'3 3.7
2015-May-22 00:33N 22°17' E 114°05'5 4.8
2015-May-21 23:33N 22°17' E 114°10'7 6.6
2015-May-21 22:32N 22°16' E 114°02'2 0.3
2015-May-21 13:32N 22°17' E 114°05'3 2.1
2015-May-21 12:16N 22°17' E 114°02'7 9.9
2015-May-21 11:33N 22°17' E 114°10'7 7.0
2015-May-21 10:33N 22°17' E 114°02'7 6.8
2015-May-21 09:33N 22°18' E 114°09'1 0.5
2015-May-21 08:33N 22°18' E 114°09'7 3.1
2015-May-21 06:18N 22°16' E 114°02'7 9.8
2015-May-21 05:34N 22°17' E 114°10'7 3.3
2015-May-21 03:20N 22°16' E 114°02'7 9.7
2015-May-21 02:33N 22°17' E 114°10'8 6.6
2015-May-21 01:24N 22°16' E 114°02'3 3.1
2015-May-21 00:33N 22°17' E 114°04'5 5.0
2015-May-20 23:33N 22°17' E 114°10'7 6.9
2015-May-20 22:33N 22°17' E 114°02'3 0.3
2015-May-20 13:33N 22°17' E 114°05'3 2.6
2015-May-20 12:15N 22°16' E 114°02'710.7
2015-May-20 11:34N 22°17' E 114°10'4 3.5
2015-May-20 10:20N 22°17' E 114°05'4 5.5
2015-May-20 09:33N 22°17' E 114°10'5 4.8
2015-May-20 08:31N 22°17' E 114°04'5 5.3
2015-May-20 07:33N 22°17' E 114°10'1 1.0
2015-May-20 06:33N 22°18' E 114°09'0 0.0
2015-May-18 09:28N 22°18' E 114°09'0 0.0
2015-May-18 08:34N 22°18' E 114°09'7 2.9
2015-May-18 06:11N 22°17' E 114°02'711.0
2015-May-18 05:33N 22°17' E 114°10'7 3.3
2015-May-18 03:20N 22°16' E 114°02'7 9.3
2015-May-18 02:33N 22°17' E 114°10'6 4.4
2015-May-18 01:16N 22°17' E 114°04'0 0.6
2015-May-18 00:33N 22°17' E 114°04'5 5.2
2015-May-17 23:33N 22°17' E 114°10'4 3.6
2015-May-17 22:27N 22°17' E 114°05'3 0.3
2015-May-17 14:05N 22°17' E 114°02'510.0
2015-May-17 13:33N 22°18' E 114°08'1 0.7
2015-May-17 12:33N 22°17' E 114°07'5 4.2
2015-May-17 11:24N 22°16' E 114°02'7 8.4
2015-May-17 10:33N 22°17' E 114°10'7 6.9
2015-May-17 09:32N 22°17' E 114°02'7 7.0
2015-May-17 08:33N 22°17' E 114°09'0 0.0
2015-May-17 07:33N 22°17' E 114°09'0 0.0
2015-May-17 06:33N 22°17' E 114°09'0 0.0
2015-May-17 05:33N 22°17' E 114°09'7 6.6
2015-May-17 04:31N 22°17' E 114°02'7 6.9
2015-May-17 03:33N 22°17' E 114°09'  

Dump ship's entire track history